Latest Weather Observations for Palmerville

IDQ60801

Issued at 2:32 pm EST Saturday 4 July 2015 (issued every 30 minutes, with the page automatically refreshed every 10 minutes)

About weather observations | Map of weather stations | Latest weather observations for QLD | Other Formats
Station Details ID: 028004 Name: PALMERVILLE Lat: -16.00 Lon: 144.08 Height: 203.8 m
Data from the previous 72 hours. | See also: Recent months at Palmerville
Date/Time
EST
Temp
°C
App
Temp
°C
Dew
Point
Rel
Hum
%
Delta-T
°C
Wind Press
QNH
hPa
Press
MSL
hPa
Rain
since 9 am
mm
Dir
 
Spd
km/h
Gust
km/h
Spd
kts
Gust
kts
04/02:00pm 29.7 28.0 8.2 26 11.9 ENE 7 15 4 8 1014.3 1013.4 0.0
04/01:30pm 29.5 27.6 9.1 28 11.4 SE 9 17 5 9 1014.8 1013.9 0.0
04/01:00pm 28.4 26.4 8.7 29 10.9 SE 9 15 5 8 1015.4 1014.5 0.0
04/12:30pm 27.7 25.7 8.6 30 10.5 SE 9 15 5 8 1016.0 1015.2 0.0
04/12:00pm 27.3 25.3 8.7 31 10.2 E 9 17 5 9 1016.4 1015.6 0.0
04/11:30am 26.2 24.2 8.7 33 9.6 ESE 9 17 5 9 1016.9 1016.1 0.0
04/11:00am 26.3 23.6 8.8 33 9.6 E 13 22 7 12 1017.1 1016.3 0.0
04/10:30am 25.2 21.9 9.5 37 8.7 E 17 22 9 12 1017.3 1016.5 0.0
04/10:00am 24.2 21.6 10.8 43 7.5 E 15 24 8 13 1017.4 1016.6 0.0
04/09:30am 22.3 19.5 11.4 50 6.1 E 17 28 9 15 1017.6 1016.8 0.0
04/09:00am 21.1 18.9 12.0 56 5.1 E 15 22 8 12 1017.6 1016.8 0.0
04/08:30am 19.5 18.0 12.0 62 4.2 ENE 11 22 6 12 1017.2 1016.4 0.0
04/08:00am 17.2 15.6 11.7 70 3.0 E 11 17 6 9 1016.8 1016.0 0.0
04/07:30am 15.2 13.6 11.4 78 2.1 E 11 17 6 9 1016.5 1015.7 0.0
04/07:00am 14.6 13.3 11.2 80 1.8 E 9 15 5 8 1016.2 1015.4 0.0
04/06:30am 14.2 13.3 11.2 82 1.6 E 7 11 4 6 1016.0 1015.2 0.0
04/06:00am 13.7 12.9 11.2 85 1.3 ENE 6 9 3 5 1015.8 1015.0 0.0
04/05:30am 13.4 13.7 10.8 84 1.4 CALM 0 0 0 0 1015.8 1015.0 0.0
04/05:00am 14.0 14.3 11.0 82 1.6 CALM 0 0 0 0 1015.9 1015.1 0.0
04/04:30am 14.3 14.5 10.5 78 2.0 CALM 0 0 0 0 1015.6 1014.8 0.0
04/04:00am 15.3 14.4 10.7 74 2.5 ENE 6 11 3 6 1015.5 1014.7 0.0
04/03:30am 15.7 14.9 10.9 73 2.6 ENE 6 11 3 6 1015.6 1014.8 0.0
04/03:00am 16.1 15.1 11.1 72 2.7 ENE 7 11 4 6 1015.7 1014.9 0.0
04/02:30am 16.3 15.4 11.5 73 2.6 ENE 7 11 4 6 1015.8 1015.0 0.0
04/02:00am 15.1 15.3 10.7 75 2.3 CALM 0 0 0 0 1015.9 1015.1 0.0
04/01:30am 16.4 16.7 10.9 70 3.0 CALM 0 6 0 3 1016.0 1015.2 0.0
04/01:00am 17.8 17.0 11.1 65 3.7 ENE 6 9 3 5 1016.2 1015.4 0.0
04/12:30am 18.1 17.2 11.2 64 3.8 ENE 7 11 4 6 1016.3 1015.5 0.0
04/12:00am 18.1 17.3 11.2 64 3.8 ENE 6 9 3 5 1016.3 1015.5 0.0
 
Date/Time
EST
Temp
°C
App
Temp
°C
Dew
Point
Rel
Hum
%
Delta-T
°C
Wind Press
QNH
hPa
Press
MSL
hPa
Rain
since 9 am
mm
Dir
 
Spd
km/h
Gust
km/h
Spd
kts
Gust
kts
03/11:30pm 18.5 17.5 11.1 62 4.1 ENE 7 9 4 5 1016.5 1015.7 0.0
03/11:00pm 19.0 18.0 11.1 60 4.3 E 7 11 4 6 1016.8 1016.0 0.0
03/10:30pm 19.3 18.3 11.1 59 4.5 E 7 11 4 6 1017.0 1016.2 0.0
03/10:00pm 19.9 18.9 10.9 56 4.9 ENE 7 11 4 6 1017.2 1016.4 0.0
03/09:30pm 20.7 19.7 11.1 54 5.3 ENE 7 11 4 6 1017.1 1016.3 0.0
03/09:00pm 21.5 20.5 10.9 51 5.9 ENE 7 11 4 6 1016.9 1016.1 0.0
03/08:30pm 21.6 20.7 10.7 50 6.0 ENE 6 11 3 6 1016.8 1016.0 0.0
03/08:00pm 22.6 21.2 11.0 48 6.5 E 9 15 5 8 1016.4 1015.6 0.0
03/07:30pm 23.4 21.2 10.8 45 7.1 E 13 20 7 11 1016.1 1015.3 0.0
03/07:00pm 24.1 22.7 9.7 40 7.9 E 7 11 4 6 1015.6 1014.8 0.0
03/06:30pm 25.1 23.3 9.4 37 8.7 NE 9 15 5 8 1015.1 1014.2 0.0
03/06:00pm 25.9 23.7 9.3 35 9.2 NE 11 15 6 8 1014.5 1013.6 0.0
03/05:30pm 27.1 25.4 9.9 34 9.7 NNE 9 13 5 7 1014.2 1013.3 0.0
03/05:00pm 28.1 26.4 9.9 32 10.3 ENE 9 13 5 7 1013.9 1013.0 0.0
03/04:30pm 28.1 25.9 9.4 31 10.5 NE 11 19 6 10 1013.7 1012.8 0.0
03/04:00pm 28.2 26.8 9.5 31 10.5 E 7 17 4 9 1013.7 1012.8 0.0
03/03:30pm 28.7 26.6 9.9 31 10.6 ESE 11 17 6 9 1013.8 1012.9 0.0
03/03:00pm 28.3 26.3 10.0 32 10.3 N 11 20 6 11 1013.9 1013.0 0.0
03/02:30pm 28.4 26.0 10.1 32 10.4 NE 13 19 7 10 1014.3 1013.4 0.0
03/02:00pm 28.4 26.0 10.1 32 10.4 NE 13 24 7 13 1014.7 1013.8 0.0
03/01:30pm 27.9 25.6 10.6 34 9.9 ENE 13 22 7 12 1015.1 1014.2 0.0
03/01:00pm 27.6 25.4 10.8 35 9.6 SSE 13 24 7 13 1015.6 1014.8 0.0
03/12:30pm 27.2 25.1 11.2 36 9.2 E 13 24 7 13 1016.2 1015.4 0.0
03/12:00pm 26.4 24.5 11.7 40 8.5 ESE 13 24 7 13 1016.6 1015.8 0.0
03/11:30am 25.5 24.2 11.3 41 8.1 NE 9 22 5 12 1017.2 1016.4 0.0
03/11:00am 24.8 22.8 11.4 43 7.6 E 13 19 7 10 1017.7 1016.9 0.0
03/10:30am 24.7 23.6 12.0 45 7.3 E 9 17 5 9 1017.9 1017.1 0.0
03/10:00am 23.5 22.5 12.2 49 6.5 ENE 9 15 5 8 1018.2 1017.3 0.0
03/09:30am 21.9 21.6 12.7 56 5.3 ENE 6 11 3 6 1018.4 1017.5 0.0
03/09:00am 19.6 19.2 12.4 63 4.1 E 6 9 3 5 1018.3 1017.4 0.0
03/08:30am 17.4 17.7 13.3 77 2.3 E 4 7 2 4 1018.3 1017.4 0.0
03/08:00am 14.6 14.8 13.0 90 0.9 ESE 4 6 2 3 1018.0 1017.2 0.0
03/07:30am 12.2 12.7 11.6 96 0.3 CALM 0 0 0 0 1017.8 1017.0 0.0
03/07:00am 12.5 12.3 11.9 96 0.3 SE 4 7 2 4 1017.4 1016.6 0.0
03/06:30am 12.5 12.0 11.9 96 0.3 E 6 9 3 5 1016.9 1016.1 0.0
03/06:00am 12.7 12.5 11.8 94 0.5 E 4 7 2 4 1016.7 1015.9 0.0
03/05:30am 13.3 12.8 12.2 93 0.6 E 6 7 3 4 1016.4 1015.6 0.0
03/05:00am 13.6 13.9 12.3 92 0.7 ESE 2 6 1 3 1016.3 1015.5 0.0
03/04:30am 14.1 13.8 12.7 91 0.8 E 6 7 3 4 1016.4 1015.6 0.0
03/04:00am 14.5 14.3 13.5 94 0.6 E 7 9 4 5 1016.3 1015.5 0.0
03/03:30am 14.2 14.4 12.9 92 0.7 E 4 7 2 4 1016.3 1015.5 0.0
03/03:00am 14.1 14.5 12.5 90 0.9 ESE 2 7 1 4 1016.3 1015.5 0.0
03/02:30am 14.4 15.2 12.4 88 1.1 CALM 0 4 0 2 1016.5 1015.7 0.0
03/02:00am 15.0 14.9 13.2 89 1.0 ENE 6 7 3 4 1016.7 1015.9 0.0
03/01:30am 15.3 16.2 13.0 86 1.3 CALM 0 0 0 0 1017.3 1016.5 0.0
03/01:00am 16.1 15.8 12.7 80 1.9 SE 6 7 3 4 1017.6 1016.8 0.0
03/12:30am 16.5 17.3 12.7 78 2.1 CALM 0 0 0 0 1017.6 1016.8 0.0
03/12:00am 17.0 18.0 13.1 78 2.2 CALM 0 0 0 0 1017.5 1016.7 0.0
 
Date/Time
EST
Temp
°C
App
Temp
°C
Dew
Point
Rel
Hum
%
Delta-T
°C
Wind Press
QNH
hPa
Press
MSL
hPa
Rain
since 9 am
mm
Dir
 
Spd
km/h
Gust
km/h
Spd
kts
Gust
kts
02/11:30pm 17.6 18.4 12.7 73 2.8 CALM 0 0 0 0 1017.7 1016.9 0.0
02/11:00pm 18.9 19.9 13.3 70 3.2 CALM 0 6 0 3 1017.9 1017.1 0.0
02/10:30pm 19.5 20.6 13.4 68 3.5 CALM 0 0 0 0 1018.0 1017.2 0.0
02/10:00pm 20.4 21.1 13.4 64 4.0 N 2 9 1 5 1018.0 1017.2 0.0
02/09:30pm 21.3 22.1 13.7 62 4.4 NE 2 7 1 4 1018.0 1017.2 0.0
02/09:00pm 22.0 21.8 13.6 59 4.9 ENE 7 11 4 6 1017.6 1016.8 0.0
02/08:30pm 22.7 22.1 13.5 56 5.4 NNE 9 15 5 8 1017.3 1016.5 0.0
02/08:00pm 23.5 22.9 13.4 53 5.9 NNE 9 15 5 8 1016.9 1016.1 0.0
02/07:30pm 24.2 23.3 13.7 52 6.2 ENE 11 17 6 9 1016.3 1015.5 0.0
02/07:00pm 24.9 23.6 13.8 50 6.6 NE 13 19 7 10 1016.0 1015.2 0.0
02/06:30pm 25.7 24.0 13.5 46 7.2 NE 15 24 8 13 1015.6 1014.8 0.0
02/06:00pm 27.0 25.9 10.7 36 9.3 ENE 7 17 4 9 1015.3 1014.4 0.0
02/05:30pm 29.2 26.1 7.2 25 11.9 SSE 13 20 7 11 1015.0 1014.1 0.0
02/05:00pm 29.8 26.8 7.7 25 12.1 SSE 13 19 7 10 1014.8 1013.9 0.0
02/04:30pm 30.5 28.0 8.3 25 12.3 SE 11 17 6 9 1014.8 1013.9 0.0
02/04:00pm 30.7 27.9 8.4 25 12.4 SSE 13 22 7 12 1014.6 1013.7 0.0
02/03:30pm 31.1 28.4 8.8 25 12.5 SSW 13 20 7 11 1014.7 1013.8 0.0
02/03:00pm 30.5 28.7 9.4 27 11.9 SW 9 13 5 7 1014.8 1013.9 0.0
02/02:30pm 30.3 28.2 9.8 28 11.7 SSW 11 22 6 12 1015.3 1014.4 0.0
02/02:00pm 30.7 29.7 11.1 30 11.4 E 7 13 4 7 1015.7 1014.9 0.0
02/01:30pm 30.2 28.5 11.2 31 11.1 SE 11 19 6 10 1016.3 1015.5 0.0
02/01:00pm 29.1 25.9 9.8 30 10.9 SSE 17 24 9 13 1017.0 1016.2 0.0
02/12:30pm 28.5 26.9 11.6 35 9.8 E 11 15 6 8 1017.6 1016.8 0.0
02/12:00pm 27.8 26.2 11.4 36 9.5 E 11 20 6 11 1018.3 1017.4 0.0
02/11:30am 27.0 25.8 11.5 38 8.9 ENE 9 15 5 8 1018.9 1018.0 0.0
02/11:00am 26.1 25.1 12.2 42 8.1 ESE 9 17 5 9 1019.4 1018.5 0.0
02/10:30am 24.9 24.1 12.8 47 7.1 ENE 9 17 5 9 1019.9 1019.1 0.0
02/10:00am 23.7 22.8 12.7 50 6.4 ENE 9 15 5 8 1020.1 1019.3 0.0
02/09:30am 22.9 22.4 13.7 56 5.4 ENE 9 13 5 7 1020.0 1019.2 0.0
02/09:00am 20.9 21.1 14.3 66 3.9 ENE 6 9 3 5 1019.8 1019.0 0.0
02/08:30am 18.3 18.2 13.8 75 2.6 ENE 7 9 4 5 1019.5 1018.6 0.0
02/08:00am 16.7 15.8 13.6 82 1.8 NE 11 15 6 8 1019.1 1018.2 0.0
02/07:30am 15.0 14.4 13.5 91 0.8 ENE 9 15 5 8 1018.9 1018.0 0.0
02/07:00am 14.8 14.1 13.3 91 0.8 ENE 9 13 5 7 1018.7 1017.8 0.0
02/06:30am 14.9 14.3 13.4 91 0.8 E 9 11 5 6 1018.4 1017.5 0.0
02/06:00am 14.9 14.2 13.1 89 1.0 E 9 13 5 7 1018.3 1017.4 0.0
02/05:30am 15.9 15.8 13.9 88 1.1 ENE 7 9 4 5 1018.0 1017.2 0.0
02/05:00am 15.7 15.7 14.1 90 0.9 ENE 7 11 4 6 1017.8 1017.0 0.0
02/04:30am 15.9 16.0 13.9 88 1.1 ENE 6 9 3 5 1017.9 1017.1 0.0
02/04:00am 16.0 15.8 13.5 85 1.4 ENE 7 9 4 5 1017.9 1017.1 0.0
02/03:30am 16.9 17.0 13.8 82 1.8 E 6 9 3 5 1018.0 1017.2 0.0
02/03:00am 16.8 17.5 13.3 80 2.0 ENE 2 7 1 4 1018.0 1017.2 0.0
02/02:30am 18.1 18.3 14.2 78 2.3 ENE 6 9 3 5 1018.2 1017.3 0.0
02/02:00am 17.9 18.8 14.0 78 2.2 NE 2 7 1 4 1018.4 1017.5 0.0
02/01:30am 18.4 19.8 14.3 77 2.4 CALM 0 6 0 3 1018.9 1018.0 0.0
02/01:00am 18.6 18.6 14.3 76 2.5 NNW 7 9 4 5 1019.1 1018.2 0.0
02/12:30am 19.0 20.1 14.7 76 2.5 N 2 6 1 3 1019.4 1018.5 0.0
02/12:00am 19.3 19.5 14.3 73 2.9 N 6 7 3 4 1019.5 1018.6 0.0
 
Date/Time
EST
Temp
°C
App
Temp
°C
Dew
Point
Rel
Hum
%
Delta-T
°C
Wind Press
QNH
hPa
Press
MSL
hPa
Rain
since 9 am
mm
Dir
 
Spd
km/h
Gust
km/h
Spd
kts
Gust
kts
01/11:30pm 20.2 20.8 14.3 69 3.5 ESE 4 7 2 4 1019.6 1018.7 0.0
01/11:00pm 20.5 20.8 14.6 69 3.5 E 6 11 3 6 1019.9 1019.1 0.0
01/10:30pm 20.0 21.2 13.7 67 3.6 CALM 0 6 0 3 1020.1 1019.3 0.0
01/10:00pm 20.8 21.2 13.7 64 4.1 ESE 4 7 2 4 1020.0 1019.2 0.0
01/09:30pm 21.7 22.1 13.6 60 4.7 E 4 7 2 4 1019.7 1018.8 0.0
01/09:00pm 22.7 22.2 13.7 56 5.3 NNE 9 11 5 6 1019.3 1018.4 0.0
01/08:30pm 23.2 23.0 13.7 55 5.6 NE 7 11 4 6 1019.0 1018.1 0.0
01/08:00pm 23.9 23.6 14.3 55 5.7 NE 9 13 5 7 1018.5 1017.6 0.0
01/07:30pm 24.9 24.3 14.7 53 6.1 NNE 11 15 6 8 1017.9 1017.1 0.0
01/07:00pm 25.9 25.5 15.3 52 6.5 NE 11 15 6 8 1017.5 1016.7 0.0
01/06:30pm 27.1 27.9 15.8 50 7.0 N 6 13 3 7 1017.1 1016.3 0.0
01/06:00pm 27.9 26.5 13.4 40 8.6 SSE 13 17 7 9 1016.6 1015.8 0.0
01/05:30pm 29.1 28.1 13.3 37 9.5 S 11 17 6 9 1016.4 1015.6 0.0
01/05:00pm 29.9 29.7 13.6 36 9.8 SE 7 13 4 7 1016.1 1015.3 0.0
01/04:30pm 30.0 29.8 13.7 37 9.9 SSW 7 9 4 5 1015.9 1015.1 0.0
01/04:00pm 30.5 30.0 13.7 35 10.2 WSW 9 13 5 7 1015.9 1015.1 0.0
01/03:30pm 30.4 30.4 13.7 36 10.1 NW 6 13 3 7 1016.0 1015.2 0.0
01/03:00pm 29.1 28.3 12.9 37 9.6 SE 9 13 5 7 1016.3 1015.5 0.0

Other Formats:

Comma delimited format used in spreadsheet applications
http://www.bom.gov.au/fwo/IDQ60801/IDQ60801.94276.axf

JavaScript Object Notation format (JSON) in row-major order
http://www.bom.gov.au/fwo/IDQ60801/IDQ60801.94276.json